sensor_id;sensor_type;location;lat;lon;timestamp;temperature;humidity
15564;DHT22;7883;52.554;13.364;2023-05-19T00:00:01;11.60;99.90
15564;DHT22;7883;52.554;13.364;2023-05-19T00:02:30;11.60;99.90
15564;DHT22;7883;52.554;13.364;2023-05-19T00:05:06;11.50;99.90
15564;DHT22;7883;52.554;13.364;2023-05-19T00:07:37;11.40;99.90
15564;DHT22;7883;52.554;13.364;2023-05-19T00:10:05;11.40;99.90
15564;DHT22;7883;52.554;13.364;2023-05-19T00:12:35;11.50;99.90
15564;DHT22;7883;52.554;13.364;2023-05-19T00:15:06;11.50;99.90
15564;DHT22;7883;52.554;13.364;2023-05-19T00:17:35;11.50;99.90
15564;DHT22;7883;52.554;13.364;2023-05-19T00:20:03;11.60;99.90
15564;DHT22;7883;52.554;13.364;2023-05-19T00:22:32;11.40;99.90
15564;DHT22;7883;52.554;13.364;2023-05-19T00:24:59;11.40;99.90
15564;DHT22;7883;52.554;13.364;2023-05-19T00:27:26;11.60;99.90
15564;DHT22;7883;52.554;13.364;2023-05-19T00:29:55;11.60;99.90
15564;DHT22;7883;52.554;13.364;2023-05-19T00:32:23;11.50;99.90
15564;DHT22;7883;52.554;13.364;2023-05-19T00:34:50;11.40;99.90
15564;DHT22;7883;52.554;13.364;2023-05-19T00:37:17;11.40;99.90
15564;DHT22;7883;52.554;13.364;2023-05-19T00:39:44;11.30;99.90
15564;DHT22;7883;52.554;13.364;2023-05-19T00:42:11;11.20;99.90
15564;DHT22;7883;52.554;13.364;2023-05-19T00:44:40;11.10;99.90
15564;DHT22;7883;52.554;13.364;2023-05-19T00:47:08;11.10;99.90
15564;DHT22;7883;52.554;13.364;2023-05-19T00:49:37;11.00;99.90
15564;DHT22;7883;52.554;13.364;2023-05-19T00:52:05;10.80;99.90
15564;DHT22;7883;52.554;13.364;2023-05-19T00:54:33;10.70;99.90
15564;DHT22;7883;52.554;13.364;2023-05-19T00:57:01;10.80;99.90
15564;DHT22;7883;52.554;13.364;2023-05-19T00:59:29;10.90;99.90
15564;DHT22;7883;52.554;13.364;2023-05-19T01:01:56;10.90;99.90
15564;DHT22;7883;52.554;13.364;2023-05-19T01:04:23;10.90;99.90
15564;DHT22;7883;52.554;13.364;2023-05-19T01:06:52;10.80;99.90
15564;DHT22;7883;52.554;13.364;2023-05-19T01:09:22;10.90;99.90
15564;DHT22;7883;52.554;13.364;2023-05-19T01:11:49;10.90;99.90
15564;DHT22;7883;52.554;13.364;2023-05-19T01:14:18;10.70;99.90
15564;DHT22;7883;52.554;13.364;2023-05-19T01:16:49;10.80;99.90
15564;DHT22;7883;52.554;13.364;2023-05-19T01:26:03;10.70;99.90
15564;DHT22;7883;52.554;13.364;2023-05-19T01:28:53;10.70;99.90
15564;DHT22;7883;52.554;13.364;2023-05-19T01:31:24;10.80;99.90
15564;DHT22;7883;52.554;13.364;2023-05-19T01:33:53;10.50;99.90
15564;DHT22;7883;52.554;13.364;2023-05-19T01:36:22;10.40;99.90
15564;DHT22;7883;52.554;13.364;2023-05-19T01:38:53;10.40;99.90
15564;DHT22;7883;52.554;13.364;2023-05-19T01:41:24;10.20;99.90
15564;DHT22;7883;52.554;13.364;2023-05-19T01:43:53;10.30;99.90
15564;DHT22;7883;52.554;13.364;2023-05-19T01:46:23;10.30;99.90
15564;DHT22;7883;52.554;13.364;2023-05-19T01:48:51;10.30;99.90
15564;DHT22;7883;52.554;13.364;2023-05-19T01:51:21;10.20;99.90
15564;DHT22;7883;52.554;13.364;2023-05-19T01:53:48;10.10;99.90
15564;DHT22;7883;52.554;13.364;2023-05-19T01:56:24;10.20;99.90
15564;DHT22;7883;52.554;13.364;2023-05-19T01:58:59;10.10;99.90
15564;DHT22;7883;52.554;13.364;2023-05-19T02:01:45;10.10;99.90
15564;DHT22;7883;52.554;13.364;2023-05-19T02:04:23;10.20;99.90
15564;DHT22;7883;52.554;13.364;2023-05-19T02:07:00;10.20;99.90
15564;DHT22;7883;52.554;13.364;2023-05-19T02:09:37;10.30;99.90
15564;DHT22;7883;52.554;13.364;2023-05-19T02:12:10;10.20;99.90
15564;DHT22;7883;52.554;13.364;2023-05-19T02:14:45;10.20;99.90
15564;DHT22;7883;52.554;13.364;2023-05-19T02:17:18;10.00;99.90
15564;DHT22;7883;52.554;13.364;2023-05-19T02:19:48;10.00;99.90
15564;DHT22;7883;52.554;13.364;2023-05-19T02:22:15;9.80;99.90
15564;DHT22;7883;52.554;13.364;2023-05-19T02:24:42;9.80;99.90
15564;DHT22;7883;52.554;13.364;2023-05-19T02:27:12;9.90;99.90
15564;DHT22;7883;52.554;13.364;2023-05-19T02:29:39;9.80;99.90
15564;DHT22;7883;52.554;13.364;2023-05-19T02:32:07;9.80;99.90
15564;DHT22;7883;52.554;13.364;2023-05-19T02:34:35;9.90;99.90
15564;DHT22;7883;52.554;13.364;2023-05-19T02:37:02;9.90;99.90
15564;DHT22;7883;52.554;13.364;2023-05-19T02:39:32;9.80;99.90
15564;DHT22;7883;52.554;13.364;2023-05-19T02:42:00;10.00;99.90
15564;DHT22;7883;52.554;13.364;2023-05-19T02:44:28;10.10;99.90
15564;DHT22;7883;52.554;13.364;2023-05-19T02:46:55;10.10;99.90
15564;DHT22;7883;52.554;13.364;2023-05-19T02:49:22;10.10;99.90
15564;DHT22;7883;52.554;13.364;2023-05-19T02:51:50;10.10;99.90
15564;DHT22;7883;52.554;13.364;2023-05-19T02:54:17;9.80;99.90
15564;DHT22;7883;52.554;13.364;2023-05-19T02:56:44;9.80;99.90
15564;DHT22;7883;52.554;13.364;2023-05-19T02:59:11;9.70;99.90
15564;DHT22;7883;52.554;13.364;2023-05-19T03:01:38;9.80;99.90
15564;DHT22;7883;52.554;13.364;2023-05-19T03:04:06;9.90;99.90
15564;DHT22;7883;52.554;13.364;2023-05-19T03:06:33;9.90;99.90
15564;DHT22;7883;52.554;13.364;2023-05-19T03:09:03;10.00;99.90
15564;DHT22;7883;52.554;13.364;2023-05-19T03:11:30;9.90;99.90
15564;DHT22;7883;52.554;13.364;2023-05-19T03:13:59;9.90;99.90
15564;DHT22;7883;52.554;13.364;2023-05-19T03:16:25;9.80;99.90
15564;DHT22;7883;52.554;13.364;2023-05-19T03:18:53;9.70;99.90
15564;DHT22;7883;52.554;13.364;2023-05-19T03:21:23;9.80;99.90
15564;DHT22;7883;52.554;13.364;2023-05-19T03:23:50;9.80;99.90
15564;DHT22;7883;52.554;13.364;2023-05-19T03:26:18;9.90;99.90
15564;DHT22;7883;52.554;13.364;2023-05-19T03:28:49;10.00;99.90
15564;DHT22;7883;52.554;13.364;2023-05-19T03:31:16;10.00;99.90
15564;DHT22;7883;52.554;13.364;2023-05-19T03:33:43;10.00;99.90
15564;DHT22;7883;52.554;13.364;2023-05-19T03:36:10;10.10;99.90
15564;DHT22;7883;52.554;13.364;2023-05-19T03:38:38;10.10;99.90
15564;DHT22;7883;52.554;13.364;2023-05-19T03:41:05;9.90;99.90
15564;DHT22;7883;52.554;13.364;2023-05-19T03:43:33;10.10;99.90
15564;DHT22;7883;52.554;13.364;2023-05-19T03:46:00;9.80;99.90
15564;DHT22;7883;52.554;13.364;2023-05-19T03:48:27;9.90;99.90
15564;DHT22;7883;52.554;13.364;2023-05-19T03:50:54;9.90;99.90
15564;DHT22;7883;52.554;13.364;2023-05-19T03:53:21;9.90;99.90
15564;DHT22;7883;52.554;13.364;2023-05-19T03:55:48;9.80;99.90
15564;DHT22;7883;52.554;13.364;2023-05-19T03:58:15;9.70;99.90
15564;DHT22;7883;52.554;13.364;2023-05-19T04:00:43;9.90;99.90
15564;DHT22;7883;52.554;13.364;2023-05-19T04:03:12;10.10;99.90
15564;DHT22;7883;52.554;13.364;2023-05-19T04:05:39;10.20;99.90
15564;DHT22;7883;52.554;13.364;2023-05-19T04:08:07;10.20;99.90
15564;DHT22;7883;52.554;13.364;2023-05-19T04:10:34;10.30;99.90
15564;DHT22;7883;52.554;13.364;2023-05-19T04:13:00;10.20;99.90
15564;DHT22;7883;52.554;13.364;2023-05-19T04:15:33;10.30;99.90
15564;DHT22;7883;52.554;13.364;2023-05-19T04:18:02;10.20;99.90
15564;DHT22;7883;52.554;13.364;2023-05-19T04:20:29;10.20;99.90
15564;DHT22;7883;52.554;13.364;2023-05-19T04:22:56;10.50;99.90
15564;DHT22;7883;52.554;13.364;2023-05-19T04:25:23;10.50;99.90
15564;DHT22;7883;52.554;13.364;2023-05-19T04:27:53;10.70;99.90
15564;DHT22;7883;52.554;13.364;2023-05-19T04:30:22;10.70;99.90
15564;DHT22;7883;52.554;13.364;2023-05-19T04:32:49;11.00;99.90
15564;DHT22;7883;52.554;13.364;2023-05-19T04:35:17;11.20;99.90
15564;DHT22;7883;52.554;13.364;2023-05-19T04:37:44;11.30;99.90
15564;DHT22;7883;52.554;13.364;2023-05-19T04:40:12;11.70;99.90
15564;DHT22;7883;52.554;13.364;2023-05-19T04:42:39;12.10;99.90
15564;DHT22;7883;52.554;13.364;2023-05-19T04:45:08;13.10;99.90
15564;DHT22;7883;52.554;13.364;2023-05-19T04:47:36;13.80;99.90
15564;DHT22;7883;52.554;13.364;2023-05-19T04:50:04;14.60;99.90
15564;DHT22;7883;52.554;13.364;2023-05-19T04:52:33;14.90;99.90
15564;DHT22;7883;52.554;13.364;2023-05-19T04:55:00;14.80;99.90
15564;DHT22;7883;52.554;13.364;2023-05-19T04:57:27;15.20;99.90
15564;DHT22;7883;52.554;13.364;2023-05-19T04:59:54;14.90;99.90
15564;DHT22;7883;52.554;13.364;2023-05-19T05:02:25;15.20;99.90
15564;DHT22;7883;52.554;13.364;2023-05-19T05:04:52;16.00;99.90
15564;DHT22;7883;52.554;13.364;2023-05-19T05:07:22;17.30;99.90
15564;DHT22;7883;52.554;13.364;2023-05-19T05:09:50;17.60;99.90
15564;DHT22;7883;52.554;13.364;2023-05-19T05:12:18;17.50;99.90
15564;DHT22;7883;52.554;13.364;2023-05-19T05:14:45;17.50;99.90
15564;DHT22;7883;52.554;13.364;2023-05-19T05:17:13;17.30;99.90
15564;DHT22;7883;52.554;13.364;2023-05-19T05:19:41;17.10;99.90
15564;DHT22;7883;52.554;13.364;2023-05-19T05:22:08;17.50;99.90
15564;DHT22;7883;52.554;13.364;2023-05-19T05:24:36;17.30;99.90
15564;DHT22;7883;52.554;13.364;2023-05-19T05:27:04;17.30;99.90
15564;DHT22;7883;52.554;13.364;2023-05-19T05:29:35;16.30;99.90
15564;DHT22;7883;52.554;13.364;2023-05-19T05:32:02;15.30;99.90
15564;DHT22;7883;52.554;13.364;2023-05-19T05:34:32;14.90;99.90
15564;DHT22;7883;52.554;13.364;2023-05-19T05:37:00;14.40;99.90
15564;DHT22;7883;52.554;13.364;2023-05-19T05:39:27;14.00;99.90
15564;DHT22;7883;52.554;13.364;2023-05-19T05:41:56;13.40;99.90
15564;DHT22;7883;52.554;13.364;2023-05-19T05:44:25;13.30;99.90
15564;DHT22;7883;52.554;13.364;2023-05-19T05:46:53;13.20;99.90
15564;DHT22;7883;52.554;13.364;2023-05-19T05:49:20;13.30;99.90
15564;DHT22;7883;52.554;13.364;2023-05-19T05:51:48;13.50;99.90
15564;DHT22;7883;52.554;13.364;2023-05-19T05:54:17;13.50;99.90
15564;DHT22;7883;52.554;13.364;2023-05-19T05:56:45;13.60;99.90
15564;DHT22;7883;52.554;13.364;2023-05-19T05:59:13;13.60;99.90
15564;DHT22;7883;52.554;13.364;2023-05-19T06:01:41;13.50;99.90
15564;DHT22;7883;52.554;13.364;2023-05-19T06:04:09;13.70;99.90
15564;DHT22;7883;52.554;13.364;2023-05-19T06:06:36;14.00;99.90
15564;DHT22;7883;52.554;13.364;2023-05-19T06:09:03;14.10;99.90
15564;DHT22;7883;52.554;13.364;2023-05-19T06:11:31;13.90;99.90
15564;DHT22;7883;52.554;13.364;2023-05-19T06:13:58;13.80;99.90
15564;DHT22;7883;52.554;13.364;2023-05-19T06:16:25;14.00;99.90
15564;DHT22;7883;52.554;13.364;2023-05-19T06:18:56;14.10;99.90
15564;DHT22;7883;52.554;13.364;2023-05-19T06:21:24;14.00;99.90
15564;DHT22;7883;52.554;13.364;2023-05-19T06:23:51;14.00;99.90
15564;DHT22;7883;52.554;13.364;2023-05-19T06:26:18;14.00;99.90
15564;DHT22;7883;52.554;13.364;2023-05-19T06:28:45;14.10;99.90
15564;DHT22;7883;52.554;13.364;2023-05-19T06:31:12;14.10;99.90
15564;DHT22;7883;52.554;13.364;2023-05-19T06:33:39;13.90;99.90
15564;DHT22;7883;52.554;13.364;2023-05-19T06:36:09;14.00;99.90
15564;DHT22;7883;52.554;13.364;2023-05-19T06:38:36;14.00;99.90
15564;DHT22;7883;52.554;13.364;2023-05-19T06:41:03;13.90;99.90
15564;DHT22;7883;52.554;13.364;2023-05-19T06:43:33;13.50;99.90
15564;DHT22;7883;52.554;13.364;2023-05-19T06:46:00;13.50;99.90
15564;DHT22;7883;52.554;13.364;2023-05-19T06:48:27;13.50;99.90
15564;DHT22;7883;52.554;13.364;2023-05-19T06:50:55;13.70;99.90
15564;DHT22;7883;52.554;13.364;2023-05-19T06:53:23;13.70;99.90
15564;DHT22;7883;52.554;13.364;2023-05-19T06:55:50;13.80;99.90
15564;DHT22;7883;52.554;13.364;2023-05-19T06:58:18;14.00;99.90
15564;DHT22;7883;52.554;13.364;2023-05-19T07:00:45;14.00;99.90
15564;DHT22;7883;52.554;13.364;2023-05-19T07:03:12;14.10;99.90
15564;DHT22;7883;52.554;13.364;2023-05-19T07:05:39;14.20;99.90
15564;DHT22;7883;52.554;13.364;2023-05-19T07:08:06;14.10;99.90
15564;DHT22;7883;52.554;13.364;2023-05-19T07:10:34;14.20;99.90
15564;DHT22;7883;52.554;13.364;2023-05-19T07:13:02;14.00;99.90
15564;DHT22;7883;52.554;13.364;2023-05-19T07:15:29;13.90;99.90
15564;DHT22;7883;52.554;13.364;2023-05-19T07:17:57;14.20;99.90
15564;DHT22;7883;52.554;13.364;2023-05-19T07:20:24;14.40;99.90
15564;DHT22;7883;52.554;13.364;2023-05-19T07:22:52;14.50;99.90
15564;DHT22;7883;52.554;13.364;2023-05-19T07:25:21;14.50;99.90
15564;DHT22;7883;52.554;13.364;2023-05-19T07:27:49;14.70;99.90
15564;DHT22;7883;52.554;13.364;2023-05-19T07:30:16;14.80;99.90
15564;DHT22;7883;52.554;13.364;2023-05-19T07:32:43;14.90;99.90
15564;DHT22;7883;52.554;13.364;2023-05-19T07:35:10;15.10;99.90
15564;DHT22;7883;52.554;13.364;2023-05-19T07:37:37;15.10;99.90
15564;DHT22;7883;52.554;13.364;2023-05-19T07:40:05;15.20;99.90
15564;DHT22;7883;52.554;13.364;2023-05-19T07:42:32;15.30;99.90
15564;DHT22;7883;52.554;13.364;2023-05-19T07:45:04;15.30;99.90
15564;DHT22;7883;52.554;13.364;2023-05-19T07:47:32;15.10;99.90
15564;DHT22;7883;52.554;13.364;2023-05-19T07:49:59;15.20;99.90
15564;DHT22;7883;52.554;13.364;2023-05-19T07:52:26;15.20;99.90
15564;DHT22;7883;52.554;13.364;2023-05-19T07:54:52;15.40;99.90
15564;DHT22;7883;52.554;13.364;2023-05-19T07:57:20;15.50;99.90
15564;DHT22;7883;52.554;13.364;2023-05-19T07:59:47;15.60;99.90
15564;DHT22;7883;52.554;13.364;2023-05-19T08:02:15;15.90;99.90
15564;DHT22;7883;52.554;13.364;2023-05-19T08:04:42;16.00;99.90
15564;DHT22;7883;52.554;13.364;2023-05-19T08:07:09;16.00;99.90
15564;DHT22;7883;52.554;13.364;2023-05-19T08:09:36;16.10;99.90
15564;DHT22;7883;52.554;13.364;2023-05-19T08:12:03;16.30;99.90
15564;DHT22;7883;52.554;13.364;2023-05-19T08:14:30;16.20;99.90
15564;DHT22;7883;52.554;13.364;2023-05-19T08:16:58;16.10;99.90
15564;DHT22;7883;52.554;13.364;2023-05-19T08:19:26;16.10;99.90
15564;DHT22;7883;52.554;13.364;2023-05-19T08:21:53;16.00;99.90
15564;DHT22;7883;52.554;13.364;2023-05-19T08:24:20;16.00;99.90
15564;DHT22;7883;52.554;13.364;2023-05-19T08:26:47;16.10;99.90
15564;DHT22;7883;52.554;13.364;2023-05-19T08:29:14;16.00;99.90
15564;DHT22;7883;52.554;13.364;2023-05-19T08:31:41;16.10;99.90
15564;DHT22;7883;52.554;13.364;2023-05-19T08:34:08;16.00;99.90
15564;DHT22;7883;52.554;13.364;2023-05-19T08:36:36;16.20;99.90
15564;DHT22;7883;52.554;13.364;2023-05-19T08:39:05;16.30;99.90
15564;DHT22;7883;52.554;13.364;2023-05-19T08:41:34;16.30;99.90
15564;DHT22;7883;52.554;13.364;2023-05-19T08:44:01;16.30;99.90
15564;DHT22;7883;52.554;13.364;2023-05-19T08:46:28;16.40;99.90
15564;DHT22;7883;52.554;13.364;2023-05-19T08:49:10;16.50;99.90
15564;DHT22;7883;52.554;13.364;2023-05-19T08:51:45;16.60;99.90
15564;DHT22;7883;52.554;13.364;2023-05-19T08:54:14;16.70;99.90
15564;DHT22;7883;52.554;13.364;2023-05-19T08:56:43;16.80;99.90
15564;DHT22;7883;52.554;13.364;2023-05-19T08:59:11;17.00;99.90
15564;DHT22;7883;52.554;13.364;2023-05-19T09:01:41;16.90;99.90
15564;DHT22;7883;52.554;13.364;2023-05-19T09:04:10;17.00;99.90
15564;DHT22;7883;52.554;13.364;2023-05-19T09:06:38;17.00;99.90
15564;DHT22;7883;52.554;13.364;2023-05-19T09:09:06;17.10;99.90
15564;DHT22;7883;52.554;13.364;2023-05-19T09:11:34;17.20;99.90
15564;DHT22;7883;52.554;13.364;2023-05-19T09:14:02;17.20;99.90
15564;DHT22;7883;52.554;13.364;2023-05-19T09:16:29;17.20;99.90
15564;DHT22;7883;52.554;13.364;2023-05-19T09:18:57;17.10;99.90
15564;DHT22;7883;52.554;13.364;2023-05-19T09:21:29;17.00;99.90
15564;DHT22;7883;52.554;13.364;2023-05-19T09:24:02;17.00;99.90
15564;DHT22;7883;52.554;13.364;2023-05-19T09:26:35;17.00;99.90
15564;DHT22;7883;52.554;13.364;2023-05-19T09:29:14;17.10;99.90
15564;DHT22;7883;52.554;13.364;2023-05-19T09:31:47;17.10;99.90
15564;DHT22;7883;52.554;13.364;2023-05-19T09:34:17;17.10;99.90
15564;DHT22;7883;52.554;13.364;2023-05-19T09:36:52;17.10;99.90
15564;DHT22;7883;52.554;13.364;2023-05-19T09:39:35;17.20;99.90
15564;DHT22;7883;52.554;13.364;2023-05-19T09:42:05;17.40;99.90
15564;DHT22;7883;52.554;13.364;2023-05-19T09:44:34;17.50;99.90
15564;DHT22;7883;52.554;13.364;2023-05-19T09:47:01;17.70;99.90
15564;DHT22;7883;52.554;13.364;2023-05-19T09:49:32;17.90;99.90
15564;DHT22;7883;52.554;13.364;2023-05-19T09:52:01;17.80;99.90
15564;DHT22;7883;52.554;13.364;2023-05-19T09:54:32;17.70;99.90
15564;DHT22;7883;52.554;13.364;2023-05-19T09:57:00;17.60;99.90
15564;DHT22;7883;52.554;13.364;2023-05-19T09:59:29;17.50;99.90
15564;DHT22;7883;52.554;13.364;2023-05-19T10:01:57;17.50;99.90
15564;DHT22;7883;52.554;13.364;2023-05-19T10:04:26;17.70;99.90
15564;DHT22;7883;52.554;13.364;2023-05-19T10:06:55;17.70;99.90
15564;DHT22;7883;52.554;13.364;2023-05-19T10:09:25;17.70;99.90
15564;DHT22;7883;52.554;13.364;2023-05-19T10:11:59;17.60;99.90
15564;DHT22;7883;52.554;13.364;2023-05-19T10:14:28;17.70;99.90
15564;DHT22;7883;52.554;13.364;2023-05-19T10:16:57;17.70;99.90
15564;DHT22;7883;52.554;13.364;2023-05-19T10:19:30;17.60;99.90
15564;DHT22;7883;52.554;13.364;2023-05-19T10:21:58;17.70;99.90
15564;DHT22;7883;52.554;13.364;2023-05-19T10:24:26;17.80;99.90
15564;DHT22;7883;52.554;13.364;2023-05-19T10:27:07;17.60;99.90
15564;DHT22;7883;52.554;13.364;2023-05-19T10:29:39;17.50;99.90
15564;DHT22;7883;52.554;13.364;2023-05-19T10:32:10;17.60;99.90
15564;DHT22;7883;52.554;13.364;2023-05-19T10:35:09;17.60;99.90
15564;DHT22;7883;52.554;13.364;2023-05-19T10:37:48;17.70;99.90
15564;DHT22;7883;52.554;13.364;2023-05-19T10:40:25;17.90;99.90
15564;DHT22;7883;52.554;13.364;2023-05-19T10:43:05;18.10;99.90
15564;DHT22;7883;52.554;13.364;2023-05-19T10:45:44;18.10;99.90
15564;DHT22;7883;52.554;13.364;2023-05-19T10:48:13;18.00;99.90
15564;DHT22;7883;52.554;13.364;2023-05-19T10:50:43;17.90;99.90
15564;DHT22;7883;52.554;13.364;2023-05-19T10:53:13;18.00;99.90
15564;DHT22;7883;52.554;13.364;2023-05-19T10:55:49;18.00;99.90
15564;DHT22;7883;52.554;13.364;2023-05-19T11:01:30;18.00;99.90
15564;DHT22;7883;52.554;13.364;2023-05-19T11:04:03;18.00;99.90
15564;DHT22;7883;52.554;13.364;2023-05-19T11:06:32;18.20;99.90
15564;DHT22;7883;52.554;13.364;2023-05-19T11:09:08;18.30;99.90
15564;DHT22;7883;52.554;13.364;2023-05-19T11:11:46;18.30;99.90
15564;DHT22;7883;52.554;13.364;2023-05-19T11:14:17;18.20;99.90
15564;DHT22;7883;52.554;13.364;2023-05-19T11:16:46;18.30;99.90
15564;DHT22;7883;52.554;13.364;2023-05-19T11:19:24;18.30;99.90
15564;DHT22;7883;52.554;13.364;2023-05-19T11:21:52;18.50;99.90
15564;DHT22;7883;52.554;13.364;2023-05-19T11:24:35;18.60;99.90
15564;DHT22;7883;52.554;13.364;2023-05-19T11:27:24;18.60;99.90
15564;DHT22;7883;52.554;13.364;2023-05-19T11:29:54;18.30;99.90
15564;DHT22;7883;52.554;13.364;2023-05-19T11:32:25;18.30;99.90
15564;DHT22;7883;52.554;13.364;2023-05-19T11:34:54;18.20;99.90
15564;DHT22;7883;52.554;13.364;2023-05-19T11:37:21;18.20;99.90
15564;DHT22;7883;52.554;13.364;2023-05-19T11:39:48;18.50;99.90
15564;DHT22;7883;52.554;13.364;2023-05-19T11:42:15;18.60;99.90
15564;DHT22;7883;52.554;13.364;2023-05-19T11:44:43;18.70;99.90
15564;DHT22;7883;52.554;13.364;2023-05-19T11:47:12;18.70;99.90
15564;DHT22;7883;52.554;13.364;2023-05-19T11:49:42;18.50;99.90
15564;DHT22;7883;52.554;13.364;2023-05-19T11:52:10;18.50;99.90
15564;DHT22;7883;52.554;13.364;2023-05-19T11:54:37;18.50;99.90
15564;DHT22;7883;52.554;13.364;2023-05-19T11:57:07;18.50;99.90
15564;DHT22;7883;52.554;13.364;2023-05-19T11:59:36;18.50;99.90
15564;DHT22;7883;52.554;13.364;2023-05-19T12:02:16;18.60;99.90
15564;DHT22;7883;52.554;13.364;2023-05-19T12:04:45;18.90;99.90
15564;DHT22;7883;52.554;13.364;2023-05-19T12:07:12;19.00;99.90
15564;DHT22;7883;52.554;13.364;2023-05-19T12:09:42;19.10;99.90
15564;DHT22;7883;52.554;13.364;2023-05-19T12:12:12;19.10;99.90
15564;DHT22;7883;52.554;13.364;2023-05-19T12:14:39;19.00;99.90
15564;DHT22;7883;52.554;13.364;2023-05-19T12:17:11;18.90;99.90
15564;DHT22;7883;52.554;13.364;2023-05-19T12:19:42;19.00;99.90
15564;DHT22;7883;52.554;13.364;2023-05-19T12:22:09;19.10;99.90
15564;DHT22;7883;52.554;13.364;2023-05-19T12:24:39;18.90;99.90
15564;DHT22;7883;52.554;13.364;2023-05-19T12:27:09;18.80;99.90
15564;DHT22;7883;52.554;13.364;2023-05-19T12:29:38;18.70;99.90
15564;DHT22;7883;52.554;13.364;2023-05-19T12:32:07;18.60;99.90
15564;DHT22;7883;52.554;13.364;2023-05-19T12:34:35;18.70;99.90
15564;DHT22;7883;52.554;13.364;2023-05-19T12:37:04;19.00;99.90
15564;DHT22;7883;52.554;13.364;2023-05-19T12:39:31;19.10;99.90
15564;DHT22;7883;52.554;13.364;2023-05-19T12:42:02;19.40;99.90
15564;DHT22;7883;52.554;13.364;2023-05-19T12:44:29;19.60;99.90
15564;DHT22;7883;52.554;13.364;2023-05-19T12:46:57;19.70;99.90
15564;DHT22;7883;52.554;13.364;2023-05-19T12:49:24;19.50;99.90
15564;DHT22;7883;52.554;13.364;2023-05-19T12:51:51;19.30;99.90
15564;DHT22;7883;52.554;13.364;2023-05-19T12:54:21;19.20;99.90
15564;DHT22;7883;52.554;13.364;2023-05-19T12:56:49;19.30;99.90
15564;DHT22;7883;52.554;13.364;2023-05-19T12:59:21;19.10;99.90
15564;DHT22;7883;52.554;13.364;2023-05-19T13:01:54;19.00;99.90
15564;DHT22;7883;52.554;13.364;2023-05-19T13:04:21;18.90;99.90
15564;DHT22;7883;52.554;13.364;2023-05-19T13:06:52;18.80;99.90
15564;DHT22;7883;52.554;13.364;2023-05-19T13:09:21;18.80;99.90
15564;DHT22;7883;52.554;13.364;2023-05-19T13:11:51;18.80;99.90
15564;DHT22;7883;52.554;13.364;2023-05-19T13:14:19;18.80;99.90
15564;DHT22;7883;52.554;13.364;2023-05-19T13:16:46;19.00;99.90
15564;DHT22;7883;52.554;13.364;2023-05-19T13:19:17;19.00;99.90
15564;DHT22;7883;52.554;13.364;2023-05-19T13:21:45;18.90;99.90
15564;DHT22;7883;52.554;13.364;2023-05-19T13:24:12;18.90;99.90
15564;DHT22;7883;52.554;13.364;2023-05-19T13:26:44;18.90;99.90
15564;DHT22;7883;52.554;13.364;2023-05-19T13:29:12;18.90;99.90
15564;DHT22;7883;52.554;13.364;2023-05-19T13:31:39;18.70;99.90
15564;DHT22;7883;52.554;13.364;2023-05-19T13:34:07;18.60;99.90
15564;DHT22;7883;52.554;13.364;2023-05-19T13:36:33;18.70;99.90
15564;DHT22;7883;52.554;13.364;2023-05-19T13:39:00;19.00;99.90
15564;DHT22;7883;52.554;13.364;2023-05-19T13:41:28;18.90;99.90
15564;DHT22;7883;52.554;13.364;2023-05-19T13:43:58;18.70;99.90
15564;DHT22;7883;52.554;13.364;2023-05-19T13:46:25;18.60;99.90
15564;DHT22;7883;52.554;13.364;2023-05-19T13:48:51;18.60;99.90
15564;DHT22;7883;52.554;13.364;2023-05-19T13:51:18;18.70;99.90
15564;DHT22;7883;52.554;13.364;2023-05-19T13:53:45;18.70;99.90
15564;DHT22;7883;52.554;13.364;2023-05-19T13:56:13;18.60;99.90
15564;DHT22;7883;52.554;13.364;2023-05-19T13:58:41;18.40;99.90
15564;DHT22;7883;52.554;13.364;2023-05-19T14:01:10;18.40;99.90
15564;DHT22;7883;52.554;13.364;2023-05-19T14:03:38;18.50;99.90
15564;DHT22;7883;52.554;13.364;2023-05-19T14:06:05;18.60;99.90
15564;DHT22;7883;52.554;13.364;2023-05-19T14:08:33;18.80;99.90
15564;DHT22;7883;52.554;13.364;2023-05-19T14:11:02;18.70;99.90
15564;DHT22;7883;52.554;13.364;2023-05-19T14:13:29;18.70;99.90
15564;DHT22;7883;52.554;13.364;2023-05-19T14:15:56;18.70;99.90
15564;DHT22;7883;52.554;13.364;2023-05-19T14:18:28;18.50;99.90
15564;DHT22;7883;52.554;13.364;2023-05-19T14:20:57;18.50;99.90
15564;DHT22;7883;52.554;13.364;2023-05-19T14:23:27;18.40;99.90
15564;DHT22;7883;52.554;13.364;2023-05-19T14:25:56;18.40;99.90
15564;DHT22;7883;52.554;13.364;2023-05-19T14:28:23;18.40;99.90
15564;DHT22;7883;52.554;13.364;2023-05-19T14:30:50;18.10;99.90
15564;DHT22;7883;52.554;13.364;2023-05-19T14:33:17;18.10;99.90
15564;DHT22;7883;52.554;13.364;2023-05-19T14:35:46;18.20;99.90
15564;DHT22;7883;52.554;13.364;2023-05-19T14:38:13;18.20;99.90
15564;DHT22;7883;52.554;13.364;2023-05-19T14:40:40;18.50;99.90
15564;DHT22;7883;52.554;13.364;2023-05-19T14:43:07;18.60;99.90
15564;DHT22;7883;52.554;13.364;2023-05-19T14:45:36;18.50;99.90
15564;DHT22;7883;52.554;13.364;2023-05-19T14:48:04;18.80;99.90
15564;DHT22;7883;52.554;13.364;2023-05-19T14:50:31;18.90;99.90
15564;DHT22;7883;52.554;13.364;2023-05-19T14:52:59;18.80;99.90
15564;DHT22;7883;52.554;13.364;2023-05-19T14:55:26;18.60;99.90
15564;DHT22;7883;52.554;13.364;2023-05-19T14:57:53;18.60;99.90
15564;DHT22;7883;52.554;13.364;2023-05-19T15:00:20;18.70;99.90
15564;DHT22;7883;52.554;13.364;2023-05-19T15:02:47;18.60;99.90
15564;DHT22;7883;52.554;13.364;2023-05-19T15:05:14;18.60;99.90
15564;DHT22;7883;52.554;13.364;2023-05-19T15:07:43;18.70;99.90
15564;DHT22;7883;52.554;13.364;2023-05-19T15:10:11;18.80;99.90
15564;DHT22;7883;52.554;13.364;2023-05-19T15:12:38;18.70;99.90
15564;DHT22;7883;52.554;13.364;2023-05-19T15:15:06;18.40;99.90
15564;DHT22;7883;52.554;13.364;2023-05-19T15:17:33;18.30;99.90
15564;DHT22;7883;52.554;13.364;2023-05-19T15:20:01;18.40;99.90
15564;DHT22;7883;52.554;13.364;2023-05-19T15:22:27;18.40;99.90
15564;DHT22;7883;52.554;13.364;2023-05-19T15:24:55;18.30;99.90
15564;DHT22;7883;52.554;13.364;2023-05-19T15:27:23;18.30;99.90
15564;DHT22;7883;52.554;13.364;2023-05-19T15:29:50;18.20;99.90
15564;DHT22;7883;52.554;13.364;2023-05-19T15:32:17;18.20;99.90
15564;DHT22;7883;52.554;13.364;2023-05-19T15:34:44;18.10;99.90
15564;DHT22;7883;52.554;13.364;2023-05-19T15:37:11;18.00;99.90
15564;DHT22;7883;52.554;13.364;2023-05-19T15:39:38;17.90;99.90
15564;DHT22;7883;52.554;13.364;2023-05-19T15:42:05;17.80;99.90
15564;DHT22;7883;52.554;13.364;2023-05-19T15:44:34;17.90;99.90
15564;DHT22;7883;52.554;13.364;2023-05-19T15:47:02;18.10;99.90
15564;DHT22;7883;52.554;13.364;2023-05-19T15:49:29;18.10;99.90
15564;DHT22;7883;52.554;13.364;2023-05-19T15:51:56;18.20;99.90